Time;durP1;ratioP1;P1;durP2;ratioP2;P2;SDS_P1;SDS_P2;PMS_P1;PMS_P2;Temp;Humidity;BMP_temperature;BMP_pressure;BME280_temperature;BME280_humidity;BME280_pressure;Samples;Min_cycle;Max_cycle;Signal;HPM_P1;HPM_P2
2022/12/12 00:02:16;;;;;;;23.55;12.25;;;128.30;2252.80;;;;;;5010154;28;20052;-87
2022/12/12 00:04:41;;;;;;;24.20;12.48;;;128.10;2252.80;;;;;;5010909;28;20494;-87
2022/12/12 00:07:07;;;;;;;;;;;128.10;2252.80;;;;;;5009726;28;20036;-83
2022/12/12 00:09:32;;;;;;;23.33;12.48;;;128.10;2252.80;;;;;;5013782;28;20011;-85
2022/12/12 00:11:58;;;;;;;;;;;128.20;2252.80;;;;;;5028674;28;20022;-83
2022/12/12 00:14:24;;;;;;;24.10;12.80;;;128.40;2252.80;;;;;;5008323;28;19905;-86
2022/12/12 00:16:49;;;;;;;;;;;128.40;2252.80;;;;;;5014030;28;20036;-83
2022/12/12 00:19:15;;;;;;;28.98;14.50;;;128.20;2252.80;;;;;;5028953;28;19933;-82
2022/12/12 00:21:41;;;;;;;;;;;128.30;2252.80;;;;;;5015204;28;20033;-87
2022/12/12 00:24:06;;;;;;;24.48;12.80;;;128.30;2252.80;;;;;;5024794;28;19905;-82
2022/12/12 00:26:33;;;;;;;;;;;103.30;2227.20;;;;;;5029334;28;20033;-85
2022/12/12 00:29:00;;;;;;;19.33;11.40;;;128.00;2252.80;;;;;;5011982;28;19912;-85
2022/12/12 00:31:26;;;;;;;28.70;15.07;;;103.20;2227.20;;;;;;5006259;28;20508;-86
2022/12/12 00:33:52;;;;;;;23.77;12.38;;;103.10;2227.20;;;;;;5025353;28;20030;-84
2022/12/12 00:36:20;;;;;;;;;;;103.10;2227.20;;;;;;5017156;28;20037;-87
2022/12/12 00:38:46;;;;;;;26.48;13.63;;;103.10;2227.20;;;;;;5015709;28;19992;-82
2022/12/12 00:41:12;;;;;;;26.67;14.48;;;103.00;2227.20;;;;;;5010996;28;20409;-82
2022/12/12 00:43:38;;;;;;;;;;;103.00;2227.20;;;;;;5023846;28;20022;-83
2022/12/12 00:46:04;;;;;;;23.65;13.38;;;103.30;2227.20;;;;;;5009439;28;19999;-83
2022/12/12 00:48:30;;;;;;;26.25;14.02;;;102.90;2227.20;;;;;;5019737;28;20021;-86
2022/12/12 00:50:55;;;;;;;;;;;102.90;2227.20;;;;;;5028013;28;20466;-86
2022/12/12 00:53:22;;;;;;;29.02;15.00;;;102.70;2227.20;;;;;;5007319;28;20437;-82
2022/12/12 00:55:56;;;;;;;26.92;13.10;;;102.60;2227.20;;;;;;5005232;28;20075;-87
2022/12/12 00:58:22;;;;;;;27.90;13.50;;;102.80;2227.20;;;;;;5007829;28;20027;-87
2022/12/12 01:00:47;;;;;;;;;;;102.90;2227.20;;;;;;5013705;28;20040;-85
2022/12/12 01:03:13;;;;;;;25.30;13.05;;;102.70;2227.20;;;;;;5012506;28;20424;-86
2022/12/12 01:05:39;;;;;;;;;;;102.70;2227.20;;;;;;5019432;28;20033;-83
2022/12/12 01:08:05;;;;;;;22.60;11.55;;;102.60;2227.20;;;;;;5013725;28;19905;-83
2022/12/12 01:10:31;;;;;;;;;;;102.50;2227.20;;;;;;5014217;28;20033;-87
2022/12/12 01:12:57;;;;;;;21.10;11.07;;;102.40;2227.20;;;;;;5012927;28;19910;-83
2022/12/12 01:15:23;;;;;;;;;;;102.50;2227.20;;;;;;5015052;28;20048;-83
2022/12/12 01:17:48;;;;;;;29.05;13.52;;;102.50;2227.20;;;;;;5012120;28;19905;-84
2022/12/12 01:20:20;;;;;;;;;;;102.60;2227.20;;;;;;5004713;28;20030;-82
2022/12/12 01:22:45;;;;;;;24.02;12.45;;;102.60;2227.20;;;;;;5009982;28;19931;-86
2022/12/12 01:25:13;;;;;;;;;;;102.60;2227.20;;;;;;5012228;28;20033;-83
2022/12/12 01:27:39;;;;;;;23.65;12.75;;;102.70;2227.20;;;;;;5012323;28;19912;-85
2022/12/12 01:30:06;;;;;;;29.25;14.40;;;102.60;2227.20;;;;;;5010300;28;20033;-82
2022/12/12 01:32:32;;;;;;;26.90;13.95;;;102.60;2227.20;;;;;;5010737;28;20030;-86
2022/12/12 01:34:58;;;;;;;;;;;102.50;2227.20;;;;;;5002268;28;20049;-83
2022/12/12 01:37:23;;;;;;;23.38;12.90;;;102.50;2227.20;;;;;;5011889;28;19928;-83
2022/12/12 01:39:49;;;;;;;;;;;102.40;2227.20;;;;;;5010200;28;20486;-87
2022/12/12 01:42:17;;;;;;;25.33;12.77;;;102.50;2227.20;;;;;;5012124;28;19904;-85
2022/12/12 01:44:49;;;;;;;27.17;12.80;;;102.70;2227.20;;;;;;5009969;28;20026;-82
2022/12/12 01:47:20;;;;;;;27.45;13.50;;;102.80;2227.20;;;;;;5010606;28;20029;-87
2022/12/12 01:49:55;;;;;;;28.25;14.15;;;102.80;2227.20;;;;;;5013347;28;20026;-87
2022/12/12 01:52:27;;;;;;;30.55;14.38;;;103.00;2227.20;;;;;;5010086;28;20398;-84
2022/12/12 01:54:56;;;;;;;27.77;13.13;;;103.00;2227.20;;;;;;5021985;28;20048;-82
2022/12/12 01:57:30;;;;;;;26.98;13.95;;;102.90;2227.20;;;;;;5018729;28;20509;-83
2022/12/12 01:59:58;;;;;;;26.77;12.23;;;102.70;2227.20;;;;;;5011290;28;20112;-82
2022/12/12 02:02:24;;;;;;;24.88;13.15;;;102.50;2227.20;;;;;;5011497;28;20083;-83
2022/12/12 02:04:50;;;;;;;28.05;14.07;;;102.60;2227.20;;;;;;5020454;28;20065;-83
2022/12/12 02:07:16;;;;;;;;;;;102.60;2227.20;;;;;;5009617;28;20037;-82
2022/12/12 02:09:43;;;;;;;21.52;11.27;;;102.70;2227.20;;;;;;5009326;28;19923;-82
2022/12/12 02:12:14;;;;;;;27.90;14.68;;;102.60;2227.20;;;;;;5018892;28;20393;-82
2022/12/12 02:14:44;;;;;;;24.45;13.45;;;102.70;2227.20;;;;;;5012231;28;20082;-83
2022/12/12 02:17:57;;;;;;;28.88;14.02;;;102.80;2227.20;;;;;;5011043;28;20017;-83
2022/12/12 02:20:50;;;;;;;24.08;13.77;;;103.00;2227.20;;;;;;4994909;28;20030;-87
2022/12/12 02:23:36;;;;;;;25.73;13.27;;;102.80;2227.20;;;;;;4994904;28;20513;-86
2022/12/12 02:26:19;;;;;;;25.00;13.20;;;102.60;2227.20;;;;;;5008755;28;20038;-86
2022/12/12 02:29:03;;;;;;;26.42;14.13;;;102.60;2227.20;;;;;;5011408;28;20041;-82
2022/12/12 02:31:50;;;;;;;27.27;13.77;;;102.60;2227.20;;;;;;5008013;28;20514;-82
2022/12/12 02:34:30;;;;;;;30.55;15.85;;;102.40;2227.20;;;;;;5008100;28;20046;-82
2022/12/12 02:37:10;;;;;;;27.05;13.63;;;102.50;2227.20;;;;;;4992500;28;20022;-82
2022/12/12 02:40:10;;;;;;;29.88;14.10;;;77.70;2227.20;;;;;;5006779;28;20030;-81
2022/12/12 02:43:06;;;;;;;28.42;14.35;;;77.70;2227.20;;;;;;4971701;28;20062;-86
2022/12/12 02:45:56;;;;;;;25.63;14.10;;;77.70;2227.20;;;;;;4955492;28;20043;-82
2022/12/12 02:48:38;;;;;;;28.15;13.40;;;102.40;2227.20;;;;;;4965280;28;20109;-80
2022/12/12 02:51:07;;;;;;;24.48;13.30;;;77.70;2227.20;;;;;;4946104;29;20040;-87
2022/12/12 02:53:33;;;;;;;26.52;14.05;;;102.40;2227.20;;;;;;4936473;29;20122;-83
2022/12/12 02:56:01;;;;;;;;;;;77.50;2227.20;;;;;;4935635;29;20119;-82
2022/12/12 02:58:27;;;;;;;26.02;12.75;;;77.40;2227.20;;;;;;4955263;28;20419;-82
2022/12/12 03:01:09;;;;;;;;;;;77.40;2227.20;;;;;;4956225;28;20074;-82
2022/12/12 03:10:18;;;;;;;28.75;14.35;;;77.20;2227.20;;;;;;4956283;28;20046;-82
2022/12/12 03:13:05;;;;;;;24.15;12.10;;;77.30;2227.20;;;;;;4955770;28;20051;-87
2022/12/12 03:15:33;;;;;;;25.13;12.18;;;77.20;2227.20;;;;;;4962233;28;20031;-86
2022/12/12 03:18:05;;;;;;;26.42;13.80;;;77.30;2227.20;;;;;;4947135;28;20079;-87
2022/12/12 03:20:57;;;;;;;28.63;14.57;;;77.20;2227.20;;;;;;5012854;28;20064;-82
2022/12/12 03:23:34;;;;;;;28.42;15.25;;;77.20;2227.20;;;;;;5027365;28;20038;-85
2022/12/12 03:26:13;;;;;;;27.75;17.52;;;77.40;2227.20;;;;;;5014022;28;20022;-84
2022/12/12 03:29:28;;;;;;;32.85;15.65;;;77.60;2227.20;;;;;;5008362;28;20025;-87
2022/12/12 03:32:00;;;;;;;26.88;14.23;;;77.50;2227.20;;;;;;4953147;28;20046;-82
2022/12/12 03:34:38;;;;;;;25.70;13.73;;;77.60;2227.20;;;;;;4939242;29;20023;-86
2022/12/12 03:37:33;;;;;;;25.60;13.20;;;77.70;2227.20;;;;;;4939287;29;20101;-83
2022/12/12 03:40:23;;;;;;;25.15;13.50;;;102.40;2227.20;;;;;;4953108;28;20023;-82
2022/12/12 03:42:58;;;;;;;23.17;13.73;;;77.70;2227.20;;;;;;4938816;29;20036;-82
2022/12/12 03:45:34;;;;;;;20.08;11.68;;;102.40;2227.20;;;;;;4938434;29;20095;-81
2022/12/12 03:48:46;;;;;;;17.52;9.77;;;102.40;2227.20;;;;;;4949740;29;20035;-85
2022/12/12 03:51:46;;;;;;;18.55;11.07;;;77.70;2227.20;;;;;;4901513;29;20040;-83
2022/12/12 03:54:22;;;;;;;21.45;11.90;;;77.70;2227.20;;;;;;4876344;29;20541;-82
2022/12/12 03:56:52;;;;;;;25.02;12.60;;;77.60;2227.20;;;;;;4879552;29;20122;-86
2022/12/12 03:59:27;;;;;;;24.42;12.13;;;77.70;2227.20;;;;;;4863699;29;20486;-82
2022/12/12 04:01:59;;;;;;;24.00;13.10;;;77.70;2227.20;;;;;;4878965;29;20049;-82
2022/12/12 04:04:35;;;;;;;21.98;11.27;;;77.50;2227.20;;;;;;4879205;29;20049;-82
2022/12/12 04:07:15;;;;;;;17.10;9.13;;;77.40;2227.20;;;;;;4885444;29;20040;-82
2022/12/12 04:15:31;;;;;;;18.27;10.13;;;77.30;2227.20;;;;;;4935975;29;20058;-82
2022/12/12 04:18:13;;;;;;;20.98;10.85;;;77.40;2227.20;;;;;;4936108;29;20031;-82
2022/12/12 04:24:33;;;;;;;27.45;13.15;;;77.10;2227.20;;;;;;4935687;29;20031;-82
2022/12/12 04:27:21;;;;;;;24.30;11.93;;;77.00;2227.20;;;;;;4946452;29;20047;-81
2022/12/12 04:29:53;;;;;;;30.17;13.05;;;76.80;2227.20;;;;;;4950472;28;20046;-82
2022/12/12 04:32:24;;;;;;;29.30;12.35;;;77.20;2227.20;;;;;;5013766;28;20014;-82
2022/12/12 04:35:08;;;;;;;24.90;12.05;;;77.20;2227.20;;;;;;5010894;28;20042;-87
2022/12/12 04:37:51;;;;;;;25.65;12.02;;;77.30;2227.20;;;;;;5016506;28;20139;-82
2022/12/12 04:40:37;;;;;;;22.52;10.57;;;77.30;2227.20;;;;;;5013723;28;20556;-86
2022/12/12 04:43:08;;;;;;;25.90;12.65;;;77.10;2227.20;;;;;;5016858;28;20025;-83
2022/12/12 04:45:39;;;;;;;24.58;13.40;;;77.00;2227.20;;;;;;5010367;28;20018;-85
2022/12/12 04:48:08;;;;;;;23.63;12.98;;;77.20;2227.20;;;;;;5013071;28;20018;-85
2022/12/12 04:50:36;;;;;;;26.35;13.05;;;77.00;2227.20;;;;;;5012585;28;20048;-85
2022/12/12 04:53:06;;;;;;;30.42;14.75;;;77.10;2227.20;;;;;;5018332;28;20022;-86
2022/12/12 04:55:40;;;;;;;21.85;11.65;;;77.10;2227.20;;;;;;5021225;28;20050;-85
2022/12/12 04:58:06;;;;;;;30.88;13.75;;;77.00;2227.20;;;;;;5023661;28;20022;-85
2022/12/12 05:01:03;;;;;;;26.77;12.77;;;77.00;2227.20;;;;;;5024780;28;20076;-81
2022/12/12 05:03:45;;;;;;;20.65;10.73;;;77.10;2227.20;;;;;;5015698;28;20053;-85
2022/12/12 05:06:15;;;;;;;28.63;13.25;;;77.20;2227.20;;;;;;5010053;28;20037;-83
2022/12/12 05:08:45;;;;;;;31.85;13.65;;;77.20;2227.20;;;;;;5013050;28;20045;-86
2022/12/12 05:11:11;;;;;;;30.08;13.18;;;77.30;2227.20;;;;;;5010073;28;20095;-83
2022/12/12 05:13:40;;;;;;;29.13;12.65;;;77.10;2227.20;;;;;;5012384;28;20363;-85
2022/12/12 05:16:36;;;;;;;24.42;13.02;;;77.20;2227.20;;;;;;5016015;28;20030;-82
2022/12/12 05:19:02;;;;;;;25.50;13.32;;;77.10;2227.20;;;;;;5005362;28;20034;-83
2022/12/12 05:21:28;;;;;;;;;;;77.20;2227.20;;;;;;5025833;28;20018;-82
2022/12/12 05:23:53;;;;;;;30.17;12.57;;;77.20;2227.20;;;;;;5009712;28;19959;-83
2022/12/12 05:26:22;;;;;;;;;;;77.20;2227.20;;;;;;5009839;28;20025;-84
2022/12/12 05:28:48;;;;;;;35.97;14.02;;;77.20;2227.20;;;;;;5022974;28;19909;-82
2022/12/12 05:31:14;;;;;;;25.17;12.73;;;77.20;2227.20;;;;;;5018671;28;20034;-84
2022/12/12 05:33:40;;;;;;;;;;;77.20;2227.20;;;;;;5020282;28;20026;-85
2022/12/12 05:36:06;;;;;;;23.77;11.20;;;77.30;2227.20;;;;;;5014332;28;20009;-85
2022/12/12 05:38:31;;;;;;;;;;;77.30;2227.20;;;;;;5012036;28;20025;-85
2022/12/12 05:40:57;;;;;;;29.42;13.18;;;77.20;2227.20;;;;;;5007661;28;19905;-85
2022/12/12 05:43:22;;;;;;;;;;;77.20;2227.20;;;;;;5025155;28;20079;-83
2022/12/12 05:45:48;;;;;;;28.02;13.38;;;77.20;2227.20;;;;;;5010592;28;19912;-86
2022/12/12 05:48:14;;;;;;;;;;;77.20;2227.20;;;;;;5010789;28;20025;-86
2022/12/12 05:50:39;;;;;;;28.15;14.68;;;77.30;2227.20;;;;;;5019291;28;20391;-85
2022/12/12 05:53:05;;;;;;;;;;;77.40;2227.20;;;;;;5025997;28;20035;-85
2022/12/12 05:55:31;;;;;;;27.05;14.38;;;77.50;2227.20;;;;;;5004053;28;20423;-82
2022/12/12 05:57:56;;;;;;;;;;;77.50;2227.20;;;;;;5012414;28;20437;-84
2022/12/12 06:00:22;;;;;;;29.73;13.88;;;77.40;2227.20;;;;;;5011823;28;19909;-82
2022/12/12 06:02:48;;;;;;;;;;;77.40;2227.20;;;;;;5000693;28;20017;-86
2022/12/12 06:05:14;;;;;;;28.02;13.07;;;77.30;2227.20;;;;;;5016576;28;19909;-85
2022/12/12 06:07:39;;;;;;;;;;;77.40;2227.20;;;;;;5032548;28;20021;-87
2022/12/12 06:10:06;;;;;;;22.05;12.88;;;77.30;2227.20;;;;;;5034950;28;19925;-82
2022/12/12 06:12:31;;;;;;;25.35;13.43;;;77.20;2227.20;;;;;;5035225;28;20053;-86
2022/12/12 06:14:57;;;;;;;;;;;77.20;2227.20;;;;;;5014839;28;20470;-86
2022/12/12 06:17:23;;;;;;;23.50;12.52;;;77.30;2227.20;;;;;;5015956;28;19986;-82
2022/12/12 06:19:48;;;;;;;;;;;77.30;2227.20;;;;;;5015866;28;20031;-82
2022/12/12 06:22:15;;;;;;;46.22;22.67;;;77.30;2227.20;;;;;;5030380;28;19905;-83
2022/12/12 06:24:41;;;;;;;42.25;20.77;;;77.30;2227.20;;;;;;5021274;28;20061;-87
2022/12/12 06:27:07;;;;;;;;;;;77.20;2227.20;;;;;;5009918;28;20056;-80
2022/12/12 06:29:32;;;;;;;27.13;15.73;;;77.00;2227.20;;;;;;5020595;28;19919;-82
2022/12/12 06:31:58;;;;;;;;;;;77.20;2227.20;;;;;;5015511;28;20389;-81
2022/12/12 06:34:23;;;;;;;32.25;14.98;;;77.20;2227.20;;;;;;5019731;28;19951;-82
2022/12/12 06:36:49;;;;;;;;;;;77.30;2227.20;;;;;;5037181;28;20397;-86
2022/12/12 06:39:15;;;;;;;24.90;13.15;;;77.40;2227.20;;;;;;5037047;28;19905;-82
2022/12/12 06:41:40;;;;;;;;;;;77.40;2227.20;;;;;;5017949;28;20024;-82
2022/12/12 06:44:06;;;;;;;26.60;13.88;;;77.40;2227.20;;;;;;5019194;28;19913;-86
2022/12/12 06:46:32;;;;;;;;;;;77.50;2227.20;;;;;;5024303;28;20168;-81
2022/12/12 06:48:58;;;;;;;24.48;11.85;;;77.40;2227.20;;;;;;5035797;28;19905;-83
2022/12/12 06:51:25;;;;;;;;;;;77.40;2227.20;;;;;;5019517;28;20034;-86
2022/12/12 06:53:51;;;;;;;17.75;10.18;;;77.30;2227.20;;;;;;5014998;28;19940;-87
2022/12/12 06:56:20;;;;;;;23.73;12.90;;;77.30;2227.20;;;;;;5011314;28;20033;-81
2022/12/12 06:58:46;;;;;;;21.33;10.98;;;77.40;2227.20;;;;;;5015714;28;20354;-83
2022/12/12 07:01:14;;;;;;;25.73;12.85;;;77.40;2227.20;;;;;;5017792;28;20040;-85
2022/12/12 07:03:40;;;;;;;21.05;10.57;;;77.30;2227.20;;;;;;5017118;28;20077;-84
2022/12/12 07:06:06;;;;;;;;;;;77.30;2227.20;;;;;;5019670;28;20029;-84
2022/12/12 07:08:34;;;;;;;17.30;9.82;;;77.40;2227.20;;;;;;5018729;28;20273;-80
2022/12/12 07:11:13;;;;;;;22.98;11.07;;;77.40;2227.20;;;;;;5035443;28;20084;-82
2022/12/12 07:13:38;;;;;;;20.77;10.90;;;77.30;2227.20;;;;;;5020553;28;20029;-87
2022/12/12 07:16:04;;;;;;;;;;;77.40;2227.20;;;;;;5028742;28;20092;-81
2022/12/12 07:18:30;;;;;;;25.45;11.75;;;77.30;2227.20;;;;;;5018635;28;19911;-85
2022/12/12 07:20:56;;;;;;;37.22;14.90;;;77.40;2227.20;;;;;;5027859;28;20022;-87
2022/12/12 07:23:22;;;;;;;;;;;77.30;2227.20;;;;;;5012677;28;20091;-81
2022/12/12 07:25:48;;;;;;;26.10;11.43;;;77.40;2227.20;;;;;;5018692;28;19958;-80
2022/12/12 07:28:13;;;;;;;;;;;77.40;2227.20;;;;;;5019476;28;20025;-82
2022/12/12 07:30:41;;;;;;;25.27;11.25;;;77.40;2227.20;;;;;;5021256;28;19913;-83
2022/12/12 07:33:07;;;;;;;23.65;11.20;;;77.40;2227.20;;;;;;5027838;28;20053;-81
2022/12/12 07:35:34;;;;;;;44.30;15.52;;;77.50;2227.20;;;;;;5035915;28;20037;-80
2022/12/12 07:37:59;;;;;;;19.95;10.85;;;77.50;2227.20;;;;;;5035846;28;20022;-79
2022/12/12 07:40:25;;;;;;;;;;;77.50;2227.20;;;;;;5021540;28;20033;-79
2022/12/12 07:42:51;;;;;;;28.60;11.75;;;77.60;2227.20;;;;;;5022839;28;19905;-82
2022/12/12 07:45:16;;;;;;;;;;;77.70;2227.20;;;;;;5033870;28;20026;-83
2022/12/12 07:47:43;;;;;;;20.95;10.70;;;77.70;2227.20;;;;;;5017611;28;19909;-78
2022/12/12 07:50:09;;;;;;;24.17;12.65;;;77.50;2227.20;;;;;;5026380;28;20504;-77
2022/12/12 07:52:35;;;;;;;22.58;11.75;;;77.40;2227.20;;;;;;5031333;28;20109;-81
2022/12/12 07:55:01;;;;;;;;;;;77.50;2227.20;;;;;;5007400;28;20466;-83
2022/12/12 07:57:28;;;;;;;17.13;9.10;;;77.50;2227.20;;;;;;5017057;28;19945;-83
2022/12/12 07:59:54;;;;;;;20.45;11.77;;;77.60;2227.20;;;;;;5005519;28;20025;-85
2022/12/12 08:02:19;;;;;;;;;;;77.60;2227.20;;;;;;5035507;28;20025;-81
2022/12/12 08:04:45;;;;;;;20.60;10.93;;;102.40;2227.20;;;;;;5034261;28;20389;-83
2022/12/12 08:07:11;;;;;;;;;;;77.70;2227.20;;;;;;5018091;28;20021;-83
2022/12/12 08:09:37;;;;;;;18.02;9.18;;;77.70;2227.20;;;;;;5023636;28;20018;-82
2022/12/12 08:12:03;;;;;;;16.98;9.38;;;102.40;2227.20;;;;;;5017436;28;20033;-78
2022/12/12 08:14:28;;;;;;;;;;;102.40;2227.20;;;;;;5024761;28;20048;-83
2022/12/12 08:16:55;;;;;;;20.60;9.98;;;102.40;2227.20;;;;;;5010700;28;19912;-81
2022/12/12 08:19:20;;;;;;;19.25;9.38;;;102.50;2227.20;;;;;;5014058;28;20053;-82
2022/12/12 08:21:46;;;;;;;;;;;102.50;2227.20;;;;;;5010238;28;20431;-83
2022/12/12 08:24:14;;;;;;;45.60;18.63;;;102.50;2227.20;;;;;;5008251;28;19911;-82
2022/12/12 08:26:41;;;;;;;42.92;18.75;;;102.40;2227.20;;;;;;5017420;28;20485;-83
2022/12/12 08:29:07;;;;;;;36.65;15.52;;;102.50;2227.20;;;;;;5017018;28;20037;-87
2022/12/12 08:31:33;;;;;;;21.15;11.65;;;102.50;2227.20;;;;;;5022434;28;20075;-85
2022/12/12 08:33:59;;;;;;;;;;;102.50;2227.20;;;;;;5017776;28;20025;-84
2022/12/12 08:36:30;;;;;;;37.88;15.70;;;102.60;2227.20;;;;;;5033852;28;19909;-81
2022/12/12 08:39:00;;;;;;;39.28;17.83;;;102.60;2227.20;;;;;;5034572;28;20029;-82
2022/12/12 08:41:26;;;;;;;63.90;22.38;;;102.60;2227.20;;;;;;5017288;28;20028;-87
2022/12/12 08:43:52;;;;;;;;;;;102.60;2227.20;;;;;;5017338;28;20018;-82
2022/12/12 08:46:18;;;;;;;42.05;16.77;;;102.60;2227.20;;;;;;5026773;28;19905;-80
2022/12/12 08:48:47;;;;;;;68.95;23.27;;;102.50;2227.20;;;;;;5014768;28;20062;-81
2022/12/12 08:51:14;;;;;;;74.50;28.33;;;102.40;2227.20;;;;;;5022744;28;20053;-80
2022/12/12 08:53:44;;;;;;;66.90;23.77;;;102.40;2227.20;;;;;;5014610;28;20051;-77
2022/12/12 08:56:09;;;;;;;87.25;29.20;;;102.50;2227.20;;;;;;5003495;28;20053;-77
2022/12/12 08:58:35;;;;;;;;;;;102.60;2227.20;;;;;;5016009;28;20069;-78
2022/12/12 09:01:01;;;;;;;56.35;21.85;;;102.60;2227.20;;;;;;5014335;28;19905;-81
2022/12/12 09:03:26;;;;;;;;;;;102.70;2227.20;;;;;;5017896;28;20031;-77
2022/12/12 09:05:52;;;;;;;68.63;26.40;;;102.60;2227.20;;;;;;5034003;28;19909;-77
2022/12/12 09:08:17;;;;;;;;;;;102.60;2227.20;;;;;;5013774;28;20056;-78
2022/12/12 09:10:48;;;;;;;53.00;21.60;;;102.70;2227.20;;;;;;5013631;28;20401;-79
2022/12/12 09:13:14;;;;;;;39.47;18.95;;;102.60;2227.20;;;;;;5009996;28;20053;-78
2022/12/12 09:15:40;;;;;;;;;;;102.60;2227.20;;;;;;5017901;28;20076;-81
2022/12/12 09:18:06;;;;;;;44.08;18.05;;;102.60;2227.20;;;;;;5016666;28;19909;-80
2022/12/12 09:20:31;;;;;;;;;;;102.70;2227.20;;;;;;5010065;28;20398;-80
2022/12/12 09:22:57;;;;;;;69.70;25.70;;;102.70;2227.20;;;;;;5022041;28;19905;-81
2022/12/12 09:25:23;;;;;;;64.45;25.35;;;102.70;2227.20;;;;;;5007990;28;20044;-84
2022/12/12 09:27:49;;;;;;;;;;;102.80;2227.20;;;;;;5014038;28;20021;-82
2022/12/12 09:30:15;;;;;;;84.20;30.88;;;102.90;2227.20;;;;;;5006849;28;20289;-79
2022/12/12 09:32:43;;;;;;;;;;;102.80;2227.20;;;;;;5019156;28;20033;-81
2022/12/12 09:35:10;;;;;;;34.45;14.85;;;102.70;2227.20;;;;;;5000571;28;19909;-78
2022/12/12 09:37:35;;;;;;;40.08;17.65;;;102.60;2227.20;;;;;;5020058;28;20025;-83
2022/12/12 09:40:01;;;;;;;;;;;102.60;2227.20;;;;;;5019327;28;20094;-82
2022/12/12 09:42:29;;;;;;;53.58;21.23;;;102.70;2227.20;;;;;;5012105;28;20384;-77
2022/12/12 09:44:59;;;;;;;48.50;20.75;;;102.70;2227.20;;;;;;5013241;28;20040;-79
2022/12/12 09:47:32;;;;;;;43.90;18.13;;;102.70;2227.20;;;;;;5013341;28;20014;-78
2022/12/12 09:50:05;;;;;;;58.47;22.50;;;102.90;2227.20;;;;;;5015647;28;20120;-83
2022/12/12 09:52:34;;;;;;;38.95;18.75;;;103.00;2227.20;;;;;;5019516;28;20500;-82
2022/12/12 09:55:20;;;;;;;32.72;17.15;;;103.10;2227.20;;;;;;5015116;28;20088;-79
2022/12/12 09:58:06;;;;;;;33.80;16.73;;;103.10;2227.20;;;;;;5028692;28;20018;-80
2022/12/12 10:00:40;;;;;;;34.45;17.50;;;103.10;2227.20;;;;;;5015909;28;20033;-81
2022/12/12 10:03:26;;;;;;;47.97;21.20;;;103.10;2227.20;;;;;;5015060;28;20083;-82
2022/12/12 10:05:57;;;;;;;39.00;18.40;;;103.10;2227.20;;;;;;5032475;28;20026;-81
2022/12/12 10:08:52;;;;;;;43.90;19.75;;;103.30;2227.20;;;;;;5031502;28;20113;-82
2022/12/12 10:12:01;;;;;;;43.85;18.63;;;103.30;2227.20;;;;;;5014997;28;20099;-83
2022/12/12 10:14:33;;;;;;;43.88;18.52;;;103.30;2227.20;;;;;;5018809;28;20406;-81
2022/12/12 10:17:02;;;;;;;31.25;15.50;;;103.10;2227.20;;;;;;5011720;28;20050;-77
2022/12/12 10:19:31;;;;;;;46.45;20.27;;;103.10;2227.20;;;;;;5017622;28;20041;-77
2022/12/12 10:22:15;;;;;;;46.63;20.05;;;103.20;2227.20;;;;;;5025255;28;20095;-76
2022/12/12 10:24:50;;;;;;;35.22;16.83;;;103.10;2227.20;;;;;;5020229;28;20022;-77
2022/12/12 10:27:16;;;;;;;36.00;15.88;;;103.20;2227.20;;;;;;5023131;28;20028;-76
2022/12/12 10:29:46;;;;;;;;;;;103.30;2227.20;;;;;;5023156;28;20055;-80
2022/12/12 10:32:25;;;;;;;27.50;14.63;;;128.10;2252.80;;;;;;5021103;28;20284;-83
2022/12/12 10:35:17;;;;;;;40.95;18.63;;;128.00;2252.80;;;;;;5018666;28;20030;-80
2022/12/12 10:38:20;;;;;;;27.00;13.32;;;103.30;2227.20;;;;;;5001933;28;20050;-76
2022/12/12 10:41:25;;;;;;;27.40;14.05;;;103.30;2227.20;;;;;;5025033;28;20024;-78
2022/12/12 10:44:11;;;;;;;27.05;15.00;;;103.20;2227.20;;;;;;5001411;28;20393;-78
2022/12/12 10:47:02;;;;;;;32.70;15.93;;;103.20;2227.20;;;;;;5019420;28;20096;-76
2022/12/12 10:49:28;;;;;;;24.83;13.48;;;103.10;2227.20;;;;;;5001772;28;20026;-78
2022/12/12 10:51:55;;;;;;;26.80;13.52;;;103.10;2227.20;;;;;;5022430;28;20022;-77
2022/12/12 10:54:26;;;;;;;42.13;18.17;;;103.20;2227.20;;;;;;5022868;28;20038;-78
2022/12/12 10:57:13;;;;;;;34.42;15.73;;;128.10;2252.80;;;;;;5002709;28;20105;-80
2022/12/12 10:59:42;;;;;;;35.08;15.20;;;128.20;2252.80;;;;;;5022691;28;20028;-80
2022/12/12 11:02:28;;;;;;;28.52;13.73;;;128.20;2252.80;;;;;;5008726;28;20161;-80
2022/12/12 11:05:17;;;;;;;31.13;14.43;;;128.50;2252.80;;;;;;5004228;28;20030;-80
2022/12/12 11:07:47;;;;;;;26.55;12.85;;;128.60;2252.80;;;;;;5007594;28;20053;-79
2022/12/12 11:10:19;;;;;;;26.08;13.40;;;128.70;2252.80;;;;;;5002550;28;20034;-80
2022/12/12 11:12:45;;;;;;;26.75;15.20;;;128.80;2252.80;;;;;;5022685;28;20472;-78
2022/12/12 11:15:16;;;;;;;;;;;128.70;2252.80;;;;;;5019972;28;20030;-79
2022/12/12 11:17:41;;;;;;;35.53;16.63;;;128.90;2252.80;;;;;;5026005;28;19905;-83
2022/12/12 11:20:14;;;;;;;;;;;153.70;2252.80;;;;;;5032284;28;20021;-77
2022/12/12 11:22:40;;;;;;;36.08;14.55;;;153.70;2252.80;;;;;;5018539;28;19909;-82
2022/12/12 11:25:06;;;;;;;;;;;128.90;2252.80;;;;;;5021198;28;20033;-81
2022/12/12 11:27:38;;;;;;;25.98;12.88;;;128.90;2252.80;;;;;;5027432;28;19955;-80
2022/12/12 11:30:19;;;;;;;24.83;12.95;;;128.90;2252.80;;;;;;5015831;28;20496;-81
2022/12/12 11:32:47;;;;;;;21.05;11.48;;;153.60;2252.80;;;;;;5026169;28;20487;-78
2022/12/12 11:35:39;;;;;;;23.63;11.43;;;128.90;2252.80;;;;;;5018138;28;20041;-79
2022/12/12 11:38:16;;;;;;;30.25;14.85;;;128.90;2252.80;;;;;;5024535;28;20109;-83
2022/12/12 11:40:43;;;;;;;29.33;13.55;;;128.90;2252.80;;;;;;5004534;28;20030;-83
2022/12/12 11:43:28;;;;;;;24.45;11.63;;;128.70;2252.80;;;;;;5025092;28;20399;-80
2022/12/12 11:46:24;;;;;;;25.02;13.48;;;128.60;2252.80;;;;;;5018111;28;20112;-80
2022/12/12 11:48:53;;;;;;;32.87;12.70;;;128.60;2252.80;;;;;;4998988;28;20045;-82
2022/12/12 11:51:42;;;;;;;28.80;13.18;;;128.70;2252.80;;;;;;5014524;28;20491;-81
2022/12/12 11:54:17;;;;;;;26.92;13.77;;;128.60;2252.80;;;;;;5021486;28;20038;-80
2022/12/12 11:56:51;;;;;;;25.77;12.38;;;128.60;2252.80;;;;;;5034307;28;20034;-81
2022/12/12 11:59:26;;;;;;;22.60;12.27;;;128.60;2252.80;;;;;;5032915;28;20033;-84
2022/12/12 12:02:24;;;;;;;25.88;11.82;;;128.50;2252.80;;;;;;5006972;28;20022;-81
2022/12/12 12:05:19;;;;;;;22.45;11.02;;;128.60;2252.80;;;;;;5027436;28;20072;-77
2022/12/12 12:08:01;;;;;;;27.42;12.10;;;128.70;2252.80;;;;;;4999769;28;20049;-77
2022/12/12 12:10:46;;;;;;;23.52;11.75;;;128.70;2252.80;;;;;;5019677;28;20463;-78
2022/12/12 12:13:24;;;;;;;22.27;12.40;;;128.60;2252.80;;;;;;5028586;28;20021;-78
2022/12/12 12:16:14;;;;;;;28.17;13.75;;;128.60;2252.80;;;;;;5021389;28;20025;-79
2022/12/12 12:18:49;;;;;;;24.58;12.80;;;128.70;2252.80;;;;;;5033047;28;20100;-78
2022/12/12 12:21:20;;;;;;;20.75;11.63;;;128.60;2252.80;;;;;;5021594;28;20022;-78
2022/12/12 12:23:46;;;;;;;22.67;12.25;;;128.50;2252.80;;;;;;5025366;28;20013;-82
2022/12/12 12:26:14;;;;;;;;;;;128.60;2252.80;;;;;;5025933;28;20022;-78
2022/12/12 12:29:06;;;;;;;23.38;12.38;;;128.40;2252.80;;;;;;5021924;28;20624;-79
2022/12/12 12:31:39;;;;;;;23.00;11.13;;;128.50;2252.80;;;;;;4952792;28;20054;-81
2022/12/12 12:34:08;;;;;;;25.23;11.85;;;128.70;2252.80;;;;;;4953370;29;20027;-80
2022/12/12 12:36:48;;;;;;;25.10;11.43;;;128.50;2252.80;;;;;;4937701;28;20043;-79
2022/12/12 12:40:00;;;;;;;23.35;12.55;;;128.70;2252.80;;;;;;4937889;29;20589;-77
2022/12/12 12:42:25;;;;;;;24.23;12.00;;;128.80;2252.80;;;;;;4841156;29;20034;-81
2022/12/12 12:44:56;;;;;;;;;;;128.80;2252.80;;;;;;4840849;29;20595;-78
2022/12/12 12:47:34;;;;;;;24.92;12.35;;;128.70;2252.80;;;;;;4840571;29;20396;-78
2022/12/12 12:50:27;;;;;;;25.52;13.60;;;128.60;2252.80;;;;;;4840584;29;20030;-77
2022/12/12 12:52:59;;;;;;;19.33;11.32;;;128.60;2252.80;;;;;;4840388;29;20037;-78
2022/12/12 12:55:34;;;;;;;19.02;10.88;;;128.40;2252.80;;;;;;4841262;29;20054;-79
2022/12/12 12:58:04;;;;;;;29.95;11.73;;;128.50;2252.80;;;;;;4825635;29;20060;-79
2022/12/12 13:00:31;;;;;;;30.67;13.90;;;128.40;2252.80;;;;;;4841438;29;20042;-80
2022/12/12 13:03:03;;;;;;;26.00;13.48;;;128.70;2252.80;;;;;;4824873;29;20042;-79
2022/12/12 13:05:39;;;;;;;25.95;12.35;;;128.90;2252.80;;;;;;4841204;29;20042;-78